createdAt,value
2023-04-19T00:03:45.563Z,100806.00
2023-04-19T00:07:47.181Z,100801.03
2023-04-19T00:11:48.632Z,100793.28
2023-04-19T00:15:50.952Z,100793.28
2023-04-19T00:19:57.123Z,100796.72
2023-04-19T00:23:58.102Z,100795.00
2023-04-19T00:27:58.604Z,100795.03
2023-04-19T00:32:05.220Z,100794.25
2023-04-19T00:36:12.417Z,100795.47
2023-04-19T00:40:18.185Z,100796.53
2023-04-19T00:44:22.915Z,100782.75
2023-04-19T00:48:33.811Z,100787.13
2023-04-19T00:52:39.427Z,100787.19
2023-04-19T00:56:41.737Z,100783.75
2023-04-19T01:00:44.122Z,100785.44
2023-04-19T01:04:45.019Z,100785.50
2023-04-19T01:08:49.902Z,100786.44
2023-04-19T01:13:13.943Z,100782.03
2023-04-19T01:17:16.072Z,100784.66
2023-04-19T01:21:21.834Z,100781.91
2023-04-19T01:25:32.612Z,100775.75
2023-04-19T01:29:33.565Z,100772.25
2023-04-19T01:33:38.405Z,100766.97
2023-04-19T01:37:46.834Z,100771.50
2023-04-19T01:41:51.103Z,100770.75
2023-04-19T01:46:01.936Z,100768.16
2023-04-19T01:50:15.763Z,100768.03
2023-04-19T01:54:22.235Z,100762.50
2023-04-19T01:58:34.882Z,100765.00
2023-04-19T02:02:41.475Z,100763.94
2023-04-19T02:06:52.838Z,100761.41
2023-04-19T02:10:54.736Z,100766.56
2023-04-19T02:14:59.680Z,100758.38
2023-04-19T02:19:06.575Z,100760.91
2023-04-19T02:23:13.350Z,100755.66
2023-04-19T02:27:16.772Z,100755.63
2023-04-19T02:31:23.533Z,100758.16
2023-04-19T02:35:26.022Z,100754.56
2023-04-19T02:39:36.062Z,100753.84
2023-04-19T02:43:38.675Z,100747.78
2023-04-19T02:47:43.790Z,100738.97
2023-04-19T02:51:45.816Z,100737.19
2023-04-19T02:55:54.530Z,100743.25
2023-04-19T02:59:59.899Z,100739.88
2023-04-19T03:04:09.410Z,100739.22
2023-04-19T03:08:21.279Z,100740.16
2023-04-19T03:12:23.614Z,100746.31
2023-04-19T03:16:34.817Z,100736.81
2023-04-19T03:20:50.501Z,100739.25
2023-04-19T03:25:29.536Z,100743.38
2023-04-19T03:30:09.433Z,100746.72
2023-04-19T03:34:51.021Z,100741.41
2023-04-19T03:39:13.227Z,100740.47
2023-04-19T03:43:15.289Z,100745.72
2023-04-19T03:47:31.987Z,100743.06
2023-04-19T03:51:40.159Z,100741.25
2023-04-19T03:55:43.147Z,100736.91
2023-04-19T03:59:46.037Z,100738.63
2023-04-19T04:04:01.058Z,100740.44
2023-04-19T04:08:13.025Z,100746.50
2023-04-19T04:12:13.567Z,100749.13
2023-04-19T04:16:22.442Z,100744.63
2023-04-19T04:20:27.668Z,100742.91
2023-04-19T04:24:41.228Z,100737.56
2023-04-19T04:28:51.049Z,100741.81
2023-04-19T04:32:54.093Z,100740.28
2023-04-19T04:37:02.091Z,100739.47
2023-04-19T04:41:03.331Z,100741.31
2023-04-19T04:45:06.641Z,100745.63
2023-04-19T04:49:17.216Z,100740.38
2023-04-19T04:53:20.220Z,100743.94
2023-04-19T04:57:27.204Z,100742.34
2023-04-19T05:01:37.594Z,100744.19
2023-04-19T05:05:45.286Z,100746.69
2023-04-19T05:09:46.744Z,100745.91
2023-04-19T05:13:51.669Z,100743.31
2023-04-19T05:17:54.599Z,100741.66
2023-04-19T05:22:08.416Z,100741.63
2023-04-19T05:26:15.925Z,100747.78
2023-04-19T05:30:20.758Z,100750.31
2023-04-19T05:34:26.123Z,100708.00
2023-04-19T05:38:32.398Z,100747.56
2023-04-19T05:42:37.341Z,100745.81
2023-04-19T05:46:38.098Z,100751.16
2023-04-19T05:50:40.464Z,100748.50
2023-04-19T05:54:56.933Z,100742.53
2023-04-19T05:58:58.343Z,100737.41
2023-04-19T06:03:02.475Z,100741.63
2023-04-19T06:07:06.197Z,100733.94
2023-04-19T06:11:20.244Z,100744.31
2023-04-19T06:15:32.018Z,100737.25
2023-04-19T06:19:36.876Z,100727.63
2023-04-19T06:23:44.479Z,100733.03
2023-04-19T06:27:57.723Z,100727.88
2023-04-19T06:32:05.559Z,100733.13
2023-04-19T06:36:24.490Z,100731.31
2023-04-19T06:40:32.181Z,100730.72
2023-04-19T06:44:37.964Z,100737.75
2023-04-19T06:48:38.671Z,100740.38
2023-04-19T06:52:42.282Z,100735.22
2023-04-19T06:56:47.368Z,100735.50
2023-04-19T07:00:50.442Z,100743.47
2023-04-19T07:04:53.964Z,100740.16
2023-04-19T07:08:57.172Z,100742.91
2023-04-19T07:12:58.848Z,100738.53
2023-04-19T07:17:01.656Z,100744.72
2023-04-19T07:21:02.682Z,100743.88
2023-04-19T07:25:03.602Z,100744.72
2023-04-19T07:29:06.192Z,100743.88
2023-04-19T07:33:09.757Z,100742.97
2023-04-19T07:37:12.693Z,100746.47
2023-04-19T07:41:19.217Z,100746.47
2023-04-19T07:45:18.924Z,100753.56
2023-04-19T07:49:26.218Z,100756.13
2023-04-19T07:53:30.228Z,100752.59
2023-04-19T07:57:35.974Z,100758.81
2023-04-19T08:01:37.139Z,100756.22
2023-04-19T08:05:39.622Z,100757.09
2023-04-19T08:09:40.348Z,100750.06
2023-04-19T08:13:51.598Z,100755.34
2023-04-19T08:18:05.296Z,100746.47
2023-04-19T08:22:09.930Z,100753.41
2023-04-19T08:26:10.213Z,100754.34
2023-04-19T08:30:19.141Z,100755.13
2023-04-19T08:34:22.330Z,100756.94
2023-04-19T08:38:24.679Z,100751.75
2023-04-19T08:42:36.549Z,100744.69
2023-04-19T08:46:37.391Z,100743.59
2023-04-19T08:50:48.809Z,100744.22
2023-04-19T08:54:59.900Z,100737.75
2023-04-19T09:03:12.923Z,100739.50
2023-04-19T09:07:24.785Z,100753.31
2023-04-19T09:11:38.507Z,100745.69
2023-04-19T09:15:41.911Z,100746.84
2023-04-19T09:19:48.277Z,100757.78
2023-04-19T09:23:51.441Z,100752.34
2023-04-19T09:27:53.676Z,100755.47
2023-04-19T09:32:02.330Z,100744.34
2023-04-19T09:36:05.474Z,100745.16
2023-04-19T09:40:23.701Z,100741.69
2023-04-19T09:48:30.000Z,100748.78
2023-04-19T09:52:30.248Z,100746.28
2023-04-19T09:56:30.578Z,100744.97
2023-04-19T10:00:47.847Z,100744.97
2023-04-19T10:05:03.183Z,100733.91
2023-04-19T10:09:11.394Z,100739.19
2023-04-19T10:17:23.172Z,100729.25
2023-04-19T10:21:27.263Z,100735.47
2023-04-19T10:25:32.169Z,100740.84
2023-04-19T10:29:55.084Z,100733.97
2023-04-19T10:33:59.267Z,100721.72
2023-04-19T10:38:12.360Z,100721.28
2023-04-19T10:42:21.269Z,100725.31
2023-04-19T10:46:38.129Z,100720.50
2023-04-19T10:51:06.678Z,100723.31
2023-04-19T10:55:12.575Z,100721.88
2023-04-19T10:59:29.571Z,100723.78
2023-04-19T11:03:51.034Z,100721.47
2023-04-19T11:07:54.239Z,100723.25
2023-04-19T11:12:04.576Z,100731.81
2023-04-19T11:16:17.743Z,100731.88
2023-04-19T11:20:21.828Z,100718.38
2023-04-19T11:24:32.810Z,100714.91
2023-04-19T11:28:38.573Z,100710.38
2023-04-19T11:32:40.978Z,100706.53
2023-04-19T11:36:55.218Z,100704.78
2023-04-19T11:41:03.261Z,100704.72
2023-04-19T11:45:18.703Z,100693.31
2023-04-19T11:49:30.183Z,100681.63
2023-04-19T11:53:30.281Z,100679.75
2023-04-19T11:57:36.107Z,100672.34
2023-04-19T12:01:38.814Z,100659.84
2023-04-19T12:05:41.243Z,100668.22
2023-04-19T12:09:41.936Z,100660.88
2023-04-19T12:13:44.739Z,100648.91
2023-04-19T12:17:58.803Z,100644.50
2023-04-19T12:22:10.380Z,100634.91
2023-04-19T12:26:12.931Z,100626.13
2023-04-19T12:30:15.657Z,100618.19
2023-04-19T12:34:15.886Z,100606.69
2023-04-19T12:38:23.976Z,100605.38
2023-04-19T12:42:38.858Z,100603.34
2023-04-19T12:46:41.546Z,100607.66
2023-04-19T12:50:41.780Z,100596.03
2023-04-19T12:54:42.602Z,100599.59
2023-04-19T12:58:43.027Z,100596.78
2023-04-19T13:02:48.882Z,100594.72
2023-04-19T13:06:49.356Z,100589.59
2023-04-19T13:10:49.804Z,100578.72
2023-04-19T13:14:52.367Z,100587.56
2023-04-19T13:18:55.080Z,100583.47
2023-04-19T13:22:55.533Z,100571.91
2023-04-19T13:26:58.971Z,100577.69
2023-04-19T13:30:59.397Z,100573.38
2023-04-19T13:35:01.437Z,100573.53
2023-04-19T13:39:02.527Z,100562.13
2023-04-19T13:43:05.669Z,100567.84
2023-04-19T13:47:29.521Z,100561.22
2023-04-19T13:51:50.700Z,100558.47
2023-04-19T13:56:02.418Z,100560.44
2023-04-19T14:00:03.562Z,100556.31
2023-04-19T14:04:06.884Z,100549.84
2023-04-19T14:08:07.700Z,100549.50
2023-04-19T14:12:11.632Z,100547.28
2023-04-19T14:16:11.515Z,100545.34
2023-04-19T14:20:12.385Z,100548.00
2023-04-19T14:24:12.331Z,100535.28
2023-04-19T14:28:14.509Z,100545.22
2023-04-19T14:32:25.991Z,100538.31
2023-04-19T14:36:29.004Z,100544.06
2023-04-19T14:40:34.662Z,100540.41
2023-04-19T14:44:37.661Z,100541.72
2023-04-19T14:48:37.435Z,100544.34
2023-04-19T14:52:41.176Z,100545.66
2023-04-19T14:56:41.433Z,100528.13
2023-04-19T15:00:44.555Z,100536.84
2023-04-19T15:04:45.205Z,100544.97
2023-04-19T15:08:47.532Z,100542.16
2023-04-19T15:12:57.799Z,100544.84
2023-04-19T15:16:59.906Z,100555.56
2023-04-19T15:20:59.999Z,100540.38
2023-04-19T15:25:03.639Z,100549.69
2023-04-19T15:29:03.885Z,100547.06
2023-04-19T15:33:11.894Z,100546.66
2023-04-19T15:37:12.047Z,100540.38
2023-04-19T15:41:11.945Z,100545.19
2023-04-19T15:45:15.493Z,100534.00
2023-04-19T15:49:17.710Z,100546.91
2023-04-19T15:53:18.262Z,100538.47
2023-04-19T15:57:19.275Z,100531.16
2023-04-19T16:01:20.092Z,100533.41
2023-04-19T16:05:25.741Z,100525.66
2023-04-19T16:09:28.609Z,100532.97
2023-04-19T16:13:28.499Z,100529.56
2023-04-19T16:17:32.849Z,100529.78
2023-04-19T16:21:35.109Z,100520.75
2023-04-19T16:25:37.033Z,100520.00
2023-04-19T16:29:40.962Z,100525.31
2023-04-19T16:33:54.262Z,100525.34
2023-04-19T16:38:04.540Z,100530.34
2023-04-19T16:42:04.562Z,100529.47
2023-04-19T16:46:12.805Z,100529.94
2023-04-19T16:50:17.436Z,100537.50
2023-04-19T16:54:21.790Z,100541.09
2023-04-19T16:58:27.764Z,100532.97
2023-04-19T17:02:37.650Z,100540.97
2023-04-19T17:06:42.808Z,100546.13
2023-04-19T17:10:53.012Z,100544.34
2023-04-19T17:14:56.707Z,100541.78
2023-04-19T17:19:14.464Z,100553.28
2023-04-19T17:23:30.770Z,100547.38
2023-04-19T17:27:39.171Z,100555.44
2023-04-19T17:31:47.071Z,100558.31
2023-04-19T17:35:50.025Z,100557.84
2023-04-19T17:39:50.330Z,100562.97
2023-04-19T17:43:56.139Z,100572.06
2023-04-19T17:47:56.990Z,100579.19
2023-04-19T17:51:57.664Z,100583.66
2023-04-19T17:55:58.114Z,100583.69
2023-04-19T18:00:03.158Z,100590.91
2023-04-19T18:04:03.468Z,100616.78
2023-04-19T18:08:03.746Z,100622.75
2023-04-19T18:12:05.799Z,100621.22
2023-04-19T18:16:12.379Z,100635.09
2023-04-19T18:20:13.794Z,100640.63
2023-04-19T18:24:16.429Z,100647.84
2023-04-19T18:28:16.665Z,100656.13
2023-04-19T18:32:19.171Z,100654.38
2023-04-19T18:36:23.678Z,100668.63
2023-04-19T18:40:24.412Z,100673.22
2023-04-19T18:44:39.060Z,100676.91
2023-04-19T18:48:47.105Z,100684.28
2023-04-19T18:52:47.339Z,100676.50
2023-04-19T18:57:21.005Z,100673.13
2023-04-19T19:01:21.484Z,100669.47
2023-04-19T19:05:25.255Z,100668.81
2023-04-19T19:09:26.562Z,100662.97
2023-04-19T19:13:30.483Z,100659.59
2023-04-19T19:17:30.442Z,100649.91
2023-04-19T19:21:33.037Z,100657.78
2023-04-19T19:25:33.539Z,100665.59
2023-04-19T19:29:36.517Z,100659.31
2023-04-19T19:33:40.863Z,100653.25
2023-04-19T19:37:43.558Z,100646.31
2023-04-19T19:45:48.220Z,100650.59
2023-04-19T19:50:17.537Z,100649.00
2023-04-19T19:54:21.452Z,100649.84
2023-04-19T19:58:46.449Z,100650.72
2023-04-19T20:02:54.212Z,100652.53
2023-04-19T20:07:28.876Z,100651.72
2023-04-19T20:11:24.551Z,100660.47
2023-04-19T20:15:25.074Z,100658.63
2023-04-19T20:19:26.245Z,100657.88
2023-04-19T20:23:27.269Z,100662.31
2023-04-19T20:27:36.831Z,100658.75
2023-04-19T20:31:37.461Z,100666.56
2023-04-19T20:35:38.121Z,100665.59
2023-04-19T20:39:39.165Z,100671.66
2023-04-19T20:43:41.970Z,100673.38
2023-04-19T20:47:44.207Z,100671.56
2023-04-19T20:51:46.525Z,100672.28
2023-04-19T20:55:46.981Z,100673.00
2023-04-19T20:59:50.057Z,100673.59
2023-04-19T21:03:54.098Z,100670.66
2023-04-19T21:07:54.578Z,100664.56
2023-04-19T21:11:55.680Z,100667.38
2023-04-19T21:15:58.518Z,100664.97
2023-04-19T21:19:58.660Z,100666.59
2023-04-19T21:24:01.172Z,100670.47
2023-04-19T21:28:01.117Z,100661.94
2023-04-19T21:32:03.602Z,100664.94
2023-04-19T21:36:07.518Z,100664.78
2023-04-19T21:40:08.118Z,100669.09
2023-04-19T21:44:11.147Z,100664.78
2023-04-19T21:48:13.514Z,100661.03
2023-04-19T21:52:14.020Z,100661.84
2023-04-19T21:56:14.259Z,100660.22
2023-04-19T22:00:15.777Z,100654.28
2023-04-19T22:04:19.167Z,100654.22
2023-04-19T22:08:22.956Z,100652.47
2023-04-19T22:12:24.300Z,100652.59
2023-04-19T22:16:30.128Z,100661.63
2023-04-19T22:20:38.706Z,100660.81
2023-04-19T22:24:56.221Z,100669.41
2023-04-19T22:28:58.083Z,100665.81
2023-04-19T22:33:01.351Z,100653.00
2023-04-19T22:37:03.979Z,100670.25
2023-04-19T22:41:04.362Z,100673.31
2023-04-19T22:45:03.996Z,100668.91
2023-04-19T22:49:04.888Z,100674.22
2023-04-19T22:53:14.890Z,100671.25
2023-04-19T22:57:16.363Z,100671.38
2023-04-19T23:01:19.884Z,100663.75
2023-04-19T23:05:21.301Z,100668.78
2023-04-19T23:09:24.625Z,100662.44
2023-04-19T23:13:24.951Z,100661.72
2023-04-19T23:17:24.989Z,100662.63
2023-04-19T23:21:27.076Z,100671.31
2023-04-19T23:25:29.996Z,100655.59
2023-04-19T23:29:30.393Z,100654.63
2023-04-19T23:33:30.733Z,100653.91
2023-04-19T23:37:31.072Z,100653.09
2023-04-19T23:41:34.066Z,100655.53
2023-04-19T23:45:34.483Z,100649.19
2023-04-19T23:49:35.582Z,100654.34
2023-04-19T23:53:36.092Z,100645.53
2023-04-19T23:57:38.667Z,100646.38
